sensor_id;sensor_type;location;lat;lon;timestamp;P1;durP1;ratioP1;P2;durP2;ratioP2
21297;SDS011;10808;48.010;11.326;2023-12-20T00:01:49;2.72;;;2.17;;
21297;SDS011;10808;48.010;11.326;2023-12-20T00:04:15;2.60;;;2.10;;
21297;SDS011;10808;48.010;11.326;2023-12-20T00:06:41;2.53;;;2.00;;
21297;SDS011;10808;48.010;11.326;2023-12-20T00:09:10;2.45;;;1.83;;
21297;SDS011;10808;48.010;11.326;2023-12-20T00:11:36;2.63;;;1.85;;
21297;SDS011;10808;48.010;11.326;2023-12-20T00:14:02;3.43;;;2.40;;
21297;SDS011;10808;48.010;11.326;2023-12-20T00:16:28;2.72;;;2.10;;
21297;SDS011;10808;48.010;11.326;2023-12-20T00:18:54;2.88;;;2.30;;
21297;SDS011;10808;48.010;11.326;2023-12-20T00:21:20;2.80;;;2.20;;
21297;SDS011;10808;48.010;11.326;2023-12-20T00:23:46;2.67;;;2.07;;
21297;SDS011;10808;48.010;11.326;2023-12-20T00:26:12;2.90;;;2.30;;
21297;SDS011;10808;48.010;11.326;2023-12-20T00:28:38;3.25;;;2.28;;
21297;SDS011;10808;48.010;11.326;2023-12-20T00:31:04;3.08;;;2.10;;
21297;SDS011;10808;48.010;11.326;2023-12-20T00:33:30;2.92;;;2.10;;
21297;SDS011;10808;48.010;11.326;2023-12-20T00:35:57;2.30;;;1.90;;
21297;SDS011;10808;48.010;11.326;2023-12-20T00:38:23;2.72;;;2.20;;
21297;SDS011;10808;48.010;11.326;2023-12-20T00:40:49;3.17;;;2.23;;
21297;SDS011;10808;48.010;11.326;2023-12-20T00:43:15;3.50;;;1.90;;
21297;SDS011;10808;48.010;11.326;2023-12-20T00:45:41;3.13;;;2.10;;
21297;SDS011;10808;48.010;11.326;2023-12-20T00:48:07;2.53;;;2.00;;
21297;SDS011;10808;48.010;11.326;2023-12-20T00:50:34;2.92;;;2.15;;
21297;SDS011;10808;48.010;11.326;2023-12-20T00:53:00;3.00;;;2.10;;
21297;SDS011;10808;48.010;11.326;2023-12-20T00:55:26;2.30;;;1.67;;
21297;SDS011;10808;48.010;11.326;2023-12-20T00:57:52;2.67;;;1.80;;
21297;SDS011;10808;48.010;11.326;2023-12-20T01:00:18;2.00;;;1.80;;
21297;SDS011;10808;48.010;11.326;2023-12-20T01:02:45;2.50;;;1.80;;
21297;SDS011;10808;48.010;11.326;2023-12-20T01:05:14;2.47;;;2.00;;
21297;SDS011;10808;48.010;11.326;2023-12-20T01:07:40;2.63;;;1.97;;
21297;SDS011;10808;48.010;11.326;2023-12-20T01:10:06;2.42;;;1.88;;
21297;SDS011;10808;48.010;11.326;2023-12-20T01:12:33;2.53;;;1.67;;
21297;SDS011;10808;48.010;11.326;2023-12-20T01:14:59;2.10;;;1.80;;
21297;SDS011;10808;48.010;11.326;2023-12-20T01:17:25;2.40;;;1.88;;
21297;SDS011;10808;48.010;11.326;2023-12-20T01:19:51;2.22;;;1.80;;
21297;SDS011;10808;48.010;11.326;2023-12-20T01:22:17;2.43;;;1.80;;
21297;SDS011;10808;48.010;11.326;2023-12-20T01:24:43;1.85;;;1.60;;
21297;SDS011;10808;48.010;11.326;2023-12-20T01:27:09;2.65;;;1.65;;
21297;SDS011;10808;48.010;11.326;2023-12-20T01:29:35;1.90;;;1.70;;
21297;SDS011;10808;48.010;11.326;2023-12-20T01:32:01;2.40;;;1.67;;
21297;SDS011;10808;48.010;11.326;2023-12-20T01:34:27;1.75;;;1.65;;
21297;SDS011;10808;48.010;11.326;2023-12-20T01:36:53;2.00;;;1.40;;
21297;SDS011;10808;48.010;11.326;2023-12-20T01:39:19;1.70;;;1.40;;
21297;SDS011;10808;48.010;11.326;2023-12-20T01:41:45;1.70;;;1.40;;
21297;SDS011;10808;48.010;11.326;2023-12-20T01:44:11;1.80;;;1.42;;
21297;SDS011;10808;48.010;11.326;2023-12-20T01:46:37;1.25;;;1.10;;
21297;SDS011;10808;48.010;11.326;2023-12-20T01:49:04;2.20;;;1.40;;
21297;SDS011;10808;48.010;11.326;2023-12-20T01:51:30;2.10;;;1.50;;
21297;SDS011;10808;48.010;11.326;2023-12-20T01:53:56;2.70;;;1.57;;
21297;SDS011;10808;48.010;11.326;2023-12-20T01:56:25;1.95;;;1.30;;
21297;SDS011;10808;48.010;11.326;2023-12-20T01:58:52;1.70;;;1.30;;
21297;SDS011;10808;48.010;11.326;2023-12-20T02:01:22;2.73;;;1.40;;
21297;SDS011;10808;48.010;11.326;2023-12-20T02:03:49;1.80;;;1.27;;
21297;SDS011;10808;48.010;11.326;2023-12-20T02:06:18;1.70;;;1.30;;
21297;SDS011;10808;48.010;11.326;2023-12-20T02:08:46;1.75;;;1.33;;
21297;SDS011;10808;48.010;11.326;2023-12-20T02:11:13;2.28;;;1.30;;
21297;SDS011;10808;48.010;11.326;2023-12-20T02:13:39;1.73;;;1.38;;
21297;SDS011;10808;48.010;11.326;2023-12-20T02:16:06;1.45;;;1.20;;
21297;SDS011;10808;48.010;11.326;2023-12-20T02:18:33;1.60;;;1.35;;
21297;SDS011;10808;48.010;11.326;2023-12-20T02:20:59;1.83;;;1.40;;
21297;SDS011;10808;48.010;11.326;2023-12-20T02:23:25;1.60;;;1.40;;
21297;SDS011;10808;48.010;11.326;2023-12-20T02:25:51;1.90;;;1.60;;
21297;SDS011;10808;48.010;11.326;2023-12-20T02:28:17;1.60;;;1.25;;
21297;SDS011;10808;48.010;11.326;2023-12-20T02:30:45;1.65;;;1.25;;
21297;SDS011;10808;48.010;11.326;2023-12-20T02:33:11;1.63;;;1.40;;
21297;SDS011;10808;48.010;11.326;2023-12-20T02:35:39;1.90;;;1.30;;
21297;SDS011;10808;48.010;11.326;2023-12-20T02:38:05;1.52;;;1.10;;
21297;SDS011;10808;48.010;11.326;2023-12-20T02:40:31;1.60;;;1.20;;
21297;SDS011;10808;48.010;11.326;2023-12-20T02:42:57;1.55;;;1.30;;
21297;SDS011;10808;48.010;11.326;2023-12-20T02:45:23;2.08;;;1.38;;
21297;SDS011;10808;48.010;11.326;2023-12-20T02:47:50;1.77;;;1.30;;
21297;SDS011;10808;48.010;11.326;2023-12-20T02:50:16;1.65;;;1.30;;
21297;SDS011;10808;48.010;11.326;2023-12-20T02:52:44;1.60;;;1.20;;
21297;SDS011;10808;48.010;11.326;2023-12-20T02:55:10;2.58;;;1.20;;
21297;SDS011;10808;48.010;11.326;2023-12-20T02:57:36;2.95;;;1.17;;
21297;SDS011;10808;48.010;11.326;2023-12-20T03:00:09;1.50;;;1.20;;
21297;SDS011;10808;48.010;11.326;2023-12-20T03:02:36;1.98;;;1.20;;
21297;SDS011;10808;48.010;11.326;2023-12-20T03:05:02;1.55;;;1.20;;
21297;SDS011;10808;48.010;11.326;2023-12-20T03:07:28;1.33;;;1.10;;
21297;SDS011;10808;48.010;11.326;2023-12-20T03:09:54;1.40;;;1.25;;
21297;SDS011;10808;48.010;11.326;2023-12-20T03:12:20;1.65;;;1.10;;
21297;SDS011;10808;48.010;11.326;2023-12-20T03:14:47;1.20;;;1.10;;
21297;SDS011;10808;48.010;11.326;2023-12-20T03:17:13;1.38;;;1.13;;
21297;SDS011;10808;48.010;11.326;2023-12-20T03:19:39;1.30;;;1.02;;
21297;SDS011;10808;48.010;11.326;2023-12-20T03:22:05;1.20;;;1.10;;
21297;SDS011;10808;48.010;11.326;2023-12-20T03:24:31;1.70;;;1.00;;
21297;SDS011;10808;48.010;11.326;2023-12-20T03:26:57;1.10;;;0.98;;
21297;SDS011;10808;48.010;11.326;2023-12-20T03:29:23;0.90;;;0.75;;
21297;SDS011;10808;48.010;11.326;2023-12-20T03:31:49;1.08;;;0.80;;
21297;SDS011;10808;48.010;11.326;2023-12-20T03:34:15;0.80;;;0.80;;
21297;SDS011;10808;48.010;11.326;2023-12-20T03:36:41;0.70;;;0.70;;
21297;SDS011;10808;48.010;11.326;2023-12-20T03:39:07;0.88;;;0.70;;
21297;SDS011;10808;48.010;11.326;2023-12-20T03:41:35;0.90;;;0.80;;
21297;SDS011;10808;48.010;11.326;2023-12-20T03:44:01;0.70;;;0.70;;
21297;SDS011;10808;48.010;11.326;2023-12-20T03:46:27;1.20;;;0.70;;
21297;SDS011;10808;48.010;11.326;2023-12-20T03:48:53;0.73;;;0.73;;
21297;SDS011;10808;48.010;11.326;2023-12-20T03:51:19;1.40;;;0.90;;
21297;SDS011;10808;48.010;11.326;2023-12-20T03:53:45;0.80;;;0.70;;
21297;SDS011;10808;48.010;11.326;2023-12-20T03:56:11;0.70;;;0.70;;
21297;SDS011;10808;48.010;11.326;2023-12-20T03:58:37;1.00;;;0.80;;
21297;SDS011;10808;48.010;11.326;2023-12-20T04:01:03;0.90;;;0.80;;
21297;SDS011;10808;48.010;11.326;2023-12-20T04:03:36;0.98;;;0.90;;
21297;SDS011;10808;48.010;11.326;2023-12-20T04:06:02;0.95;;;0.85;;
21297;SDS011;10808;48.010;11.326;2023-12-20T04:08:28;1.10;;;0.97;;
21297;SDS011;10808;48.010;11.326;2023-12-20T04:10:54;0.80;;;0.80;;
21297;SDS011;10808;48.010;11.326;2023-12-20T04:13:20;1.40;;;1.20;;
21297;SDS011;10808;48.010;11.326;2023-12-20T04:15:46;2.22;;;1.10;;
21297;SDS011;10808;48.010;11.326;2023-12-20T04:18:12;1.30;;;1.08;;
21297;SDS011;10808;48.010;11.326;2023-12-20T04:20:38;1.35;;;0.90;;
21297;SDS011;10808;48.010;11.326;2023-12-20T04:23:04;1.35;;;1.10;;
21297;SDS011;10808;48.010;11.326;2023-12-20T04:25:30;1.80;;;1.38;;
21297;SDS011;10808;48.010;11.326;2023-12-20T04:27:56;1.30;;;1.20;;
21297;SDS011;10808;48.010;11.326;2023-12-20T04:30:22;1.30;;;1.20;;
21297;SDS011;10808;48.010;11.326;2023-12-20T04:32:48;1.55;;;1.40;;
21297;SDS011;10808;48.010;11.326;2023-12-20T04:35:14;2.10;;;1.42;;
21297;SDS011;10808;48.010;11.326;2023-12-20T04:37:40;1.90;;;1.30;;
21297;SDS011;10808;48.010;11.326;2023-12-20T04:40:06;1.92;;;1.67;;
21297;SDS011;10808;48.010;11.326;2023-12-20T04:42:33;2.20;;;1.73;;
21297;SDS011;10808;48.010;11.326;2023-12-20T04:44:59;2.05;;;1.60;;
21297;SDS011;10808;48.010;11.326;2023-12-20T04:47:25;2.20;;;1.73;;
21297;SDS011;10808;48.010;11.326;2023-12-20T04:49:51;2.70;;;1.80;;
21297;SDS011;10808;48.010;11.326;2023-12-20T04:52:17;2.20;;;1.93;;
21297;SDS011;10808;48.010;11.326;2023-12-20T04:54:43;3.38;;;2.20;;
21297;SDS011;10808;48.010;11.326;2023-12-20T04:57:09;2.30;;;1.90;;
21297;SDS011;10808;48.010;11.326;2023-12-20T04:59:35;2.67;;;1.65;;
21297;SDS011;10808;48.010;11.326;2023-12-20T05:02:01;2.97;;;1.80;;
21297;SDS011;10808;48.010;11.326;2023-12-20T05:04:27;3.25;;;1.92;;
21297;SDS011;10808;48.010;11.326;2023-12-20T05:06:53;3.28;;;2.13;;
21297;SDS011;10808;48.010;11.326;2023-12-20T05:09:19;3.25;;;2.17;;
21297;SDS011;10808;48.010;11.326;2023-12-20T05:11:45;2.90;;;2.10;;
21297;SDS011;10808;48.010;11.326;2023-12-20T05:14:11;4.93;;;2.10;;
21297;SDS011;10808;48.010;11.326;2023-12-20T05:16:37;2.83;;;1.95;;
21297;SDS011;10808;48.010;11.326;2023-12-20T05:19:03;3.03;;;2.00;;
21297;SDS011;10808;48.010;11.326;2023-12-20T05:21:32;2.87;;;2.00;;
21297;SDS011;10808;48.010;11.326;2023-12-20T05:23:59;2.27;;;1.80;;
21297;SDS011;10808;48.010;11.326;2023-12-20T05:26:25;2.40;;;1.63;;
21297;SDS011;10808;48.010;11.326;2023-12-20T05:28:51;2.15;;;1.50;;
21297;SDS011;10808;48.010;11.326;2023-12-20T05:31:18;2.03;;;1.50;;
21297;SDS011;10808;48.010;11.326;2023-12-20T05:33:44;1.77;;;1.40;;
21297;SDS011;10808;48.010;11.326;2023-12-20T05:36:09;2.20;;;1.80;;
21297;SDS011;10808;48.010;11.326;2023-12-20T05:38:37;2.13;;;1.63;;
21297;SDS011;10808;48.010;11.326;2023-12-20T05:41:03;2.35;;;1.77;;
21297;SDS011;10808;48.010;11.326;2023-12-20T05:43:29;2.28;;;1.65;;
21297;SDS011;10808;48.010;11.326;2023-12-20T05:45:55;1.70;;;1.50;;
21297;SDS011;10808;48.010;11.326;2023-12-20T05:48:21;1.65;;;1.50;;
21297;SDS011;10808;48.010;11.326;2023-12-20T05:50:49;2.00;;;1.77;;
21297;SDS011;10808;48.010;11.326;2023-12-20T05:53:15;1.83;;;1.70;;
21297;SDS011;10808;48.010;11.326;2023-12-20T05:55:41;2.40;;;1.70;;
21297;SDS011;10808;48.010;11.326;2023-12-20T05:58:07;2.00;;;1.80;;
21297;SDS011;10808;48.010;11.326;2023-12-20T06:00:33;1.88;;;1.60;;
21297;SDS011;10808;48.010;11.326;2023-12-20T06:02:59;2.63;;;1.55;;
21297;SDS011;10808;48.010;11.326;2023-12-20T06:05:25;2.17;;;1.67;;
21297;SDS011;10808;48.010;11.326;2023-12-20T06:07:53;2.28;;;1.65;;
21297;SDS011;10808;48.010;11.326;2023-12-20T06:10:20;1.77;;;1.60;;
21297;SDS011;10808;48.010;11.326;2023-12-20T06:12:47;1.85;;;1.60;;
21297;SDS011;10808;48.010;11.326;2023-12-20T06:15:15;1.83;;;1.33;;
21297;SDS011;10808;48.010;11.326;2023-12-20T06:17:41;1.50;;;1.27;;
21297;SDS011;10808;48.010;11.326;2023-12-20T06:20:07;1.80;;;1.40;;
21297;SDS011;10808;48.010;11.326;2023-12-20T06:22:34;2.58;;;1.30;;
21297;SDS011;10808;48.010;11.326;2023-12-20T06:25:01;1.50;;;1.40;;
21297;SDS011;10808;48.010;11.326;2023-12-20T06:27:28;1.38;;;1.23;;
21297;SDS011;10808;48.010;11.326;2023-12-20T06:29:55;1.20;;;1.10;;
21297;SDS011;10808;48.010;11.326;2023-12-20T06:32:21;1.10;;;1.00;;
21297;SDS011;10808;48.010;11.326;2023-12-20T06:34:49;1.23;;;1.13;;
21297;SDS011;10808;48.010;11.326;2023-12-20T06:37:15;1.50;;;1.40;;
21297;SDS011;10808;48.010;11.326;2023-12-20T06:39:41;2.80;;;1.50;;
21297;SDS011;10808;48.010;11.326;2023-12-20T06:42:07;1.70;;;1.40;;
21297;SDS011;10808;48.010;11.326;2023-12-20T06:44:36;1.80;;;1.55;;
21297;SDS011;10808;48.010;11.326;2023-12-20T06:47:02;1.20;;;1.10;;
21297;SDS011;10808;48.010;11.326;2023-12-20T06:49:28;2.75;;;1.50;;
21297;SDS011;10808;48.010;11.326;2023-12-20T06:51:55;2.13;;;1.85;;
21297;SDS011;10808;48.010;11.326;2023-12-20T06:54:21;1.40;;;1.10;;
21297;SDS011;10808;48.010;11.326;2023-12-20T06:56:48;2.03;;;1.10;;
21297;SDS011;10808;48.010;11.326;2023-12-20T06:59:14;1.90;;;1.42;;
21297;SDS011;10808;48.010;11.326;2023-12-20T07:01:40;2.05;;;1.42;;
21297;SDS011;10808;48.010;11.326;2023-12-20T07:04:07;1.70;;;1.40;;
21297;SDS011;10808;48.010;11.326;2023-12-20T07:06:34;2.03;;;1.70;;
21297;SDS011;10808;48.010;11.326;2023-12-20T07:09:00;1.55;;;1.45;;
21297;SDS011;10808;48.010;11.326;2023-12-20T07:11:26;4.18;;;3.45;;
21297;SDS011;10808;48.010;11.326;2023-12-20T07:13:52;3.78;;;2.70;;
21297;SDS011;10808;48.010;11.326;2023-12-20T07:16:19;1.67;;;1.58;;
21297;SDS011;10808;48.010;11.326;2023-12-20T07:18:45;1.42;;;1.30;;
21297;SDS011;10808;48.010;11.326;2023-12-20T07:21:11;2.00;;;1.50;;
21297;SDS011;10808;48.010;11.326;2023-12-20T07:23:37;1.30;;;1.20;;
21297;SDS011;10808;48.010;11.326;2023-12-20T07:26:03;2.63;;;2.22;;
21297;SDS011;10808;48.010;11.326;2023-12-20T07:28:30;1.63;;;1.52;;
21297;SDS011;10808;48.010;11.326;2023-12-20T07:30:56;1.88;;;1.50;;
21297;SDS011;10808;48.010;11.326;2023-12-20T07:33:22;2.27;;;1.20;;
21297;SDS011;10808;48.010;11.326;2023-12-20T07:35:47;1.10;;;1.00;;
21297;SDS011;10808;48.010;11.326;2023-12-20T07:40:43;1.33;;;1.23;;
21297;SDS011;10808;48.010;11.326;2023-12-20T07:43:09;1.50;;;1.15;;
21297;SDS011;10808;48.010;11.326;2023-12-20T07:45:35;1.20;;;1.10;;
21297;SDS011;10808;48.010;11.326;2023-12-20T07:48:01;1.40;;;1.30;;
21297;SDS011;10808;48.010;11.326;2023-12-20T07:50:27;1.95;;;1.75;;
21297;SDS011;10808;48.010;11.326;2023-12-20T07:52:53;1.42;;;1.33;;
21297;SDS011;10808;48.010;11.326;2023-12-20T07:55:19;1.92;;;1.45;;
21297;SDS011;10808;48.010;11.326;2023-12-20T07:57:46;1.38;;;1.10;;
21297;SDS011;10808;48.010;11.326;2023-12-20T08:00:12;1.10;;;1.00;;
21297;SDS011;10808;48.010;11.326;2023-12-20T08:02:39;1.20;;;1.10;;
21297;SDS011;10808;48.010;11.326;2023-12-20T08:05:05;1.10;;;1.00;;
21297;SDS011;10808;48.010;11.326;2023-12-20T08:07:31;1.37;;;1.27;;
21297;SDS011;10808;48.010;11.326;2023-12-20T08:09:57;0.80;;;0.80;;
21297;SDS011;10808;48.010;11.326;2023-12-20T08:12:23;1.38;;;1.00;;
21297;SDS011;10808;48.010;11.326;2023-12-20T08:14:49;1.10;;;1.00;;
21297;SDS011;10808;48.010;11.326;2023-12-20T08:17:15;2.45;;;1.40;;
21297;SDS011;10808;48.010;11.326;2023-12-20T08:19:41;3.20;;;2.20;;
21297;SDS011;10808;48.010;11.326;2023-12-20T08:22:07;1.87;;;1.50;;
21297;SDS011;10808;48.010;11.326;2023-12-20T08:24:33;3.75;;;2.60;;
21297;SDS011;10808;48.010;11.326;2023-12-20T08:26:59;6.30;;;3.58;;
21297;SDS011;10808;48.010;11.326;2023-12-20T08:29:25;3.20;;;2.05;;
21297;SDS011;10808;48.010;11.326;2023-12-20T08:31:52;1.67;;;1.20;;
21297;SDS011;10808;48.010;11.326;2023-12-20T08:34:20;1.70;;;1.20;;
21297;SDS011;10808;48.010;11.326;2023-12-20T08:36:47;3.20;;;1.80;;
21297;SDS011;10808;48.010;11.326;2023-12-20T08:39:13;3.07;;;2.07;;
21297;SDS011;10808;48.010;11.326;2023-12-20T08:41:39;2.53;;;2.03;;
21297;SDS011;10808;48.010;11.326;2023-12-20T08:44:05;3.00;;;1.77;;
21297;SDS011;10808;48.010;11.326;2023-12-20T08:46:31;2.08;;;1.80;;
21297;SDS011;10808;48.010;11.326;2023-12-20T08:48:57;2.07;;;1.70;;
21297;SDS011;10808;48.010;11.326;2023-12-20T08:51:23;2.38;;;1.48;;
21297;SDS011;10808;48.010;11.326;2023-12-20T08:53:51;2.03;;;1.80;;
21297;SDS011;10808;48.010;11.326;2023-12-20T08:56:17;2.20;;;1.80;;
21297;SDS011;10808;48.010;11.326;2023-12-20T08:58:44;1.63;;;1.30;;
21297;SDS011;10808;48.010;11.326;2023-12-20T09:01:11;2.45;;;1.95;;
21297;SDS011;10808;48.010;11.326;2023-12-20T09:03:38;1.42;;;1.27;;
21297;SDS011;10808;48.010;11.326;2023-12-20T09:06:05;2.45;;;1.40;;
21297;SDS011;10808;48.010;11.326;2023-12-20T09:08:31;1.50;;;1.30;;
21297;SDS011;10808;48.010;11.326;2023-12-20T09:10:57;2.20;;;1.53;;
21297;SDS011;10808;48.010;11.326;2023-12-20T09:13:24;2.35;;;1.40;;
21297;SDS011;10808;48.010;11.326;2023-12-20T09:15:56;3.53;;;1.45;;
21297;SDS011;10808;48.010;11.326;2023-12-20T09:18:22;2.70;;;1.10;;
21297;SDS011;10808;48.010;11.326;2023-12-20T09:20:48;1.85;;;1.35;;
21297;SDS011;10808;48.010;11.326;2023-12-20T09:23:14;1.48;;;1.30;;
21297;SDS011;10808;48.010;11.326;2023-12-20T09:25:40;3.05;;;1.48;;
21297;SDS011;10808;48.010;11.326;2023-12-20T09:28:06;4.35;;;1.63;;
21297;SDS011;10808;48.010;11.326;2023-12-20T09:30:32;3.28;;;1.52;;
21297;SDS011;10808;48.010;11.326;2023-12-20T09:32:59;3.22;;;1.50;;
21297;SDS011;10808;48.010;11.326;2023-12-20T09:35:25;2.35;;;1.30;;
21297;SDS011;10808;48.010;11.326;2023-12-20T09:37:51;2.30;;;1.05;;
21297;SDS011;10808;48.010;11.326;2023-12-20T09:40:20;2.22;;;1.45;;
21297;SDS011;10808;48.010;11.326;2023-12-20T09:42:50;1.05;;;0.90;;
21297;SDS011;10808;48.010;11.326;2023-12-20T09:45:35;1.00;;;0.90;;
21297;SDS011;10808;48.010;11.326;2023-12-20T09:48:01;1.20;;;0.90;;
21297;SDS011;10808;48.010;11.326;2023-12-20T09:50:30;2.42;;;1.13;;
21297;SDS011;10808;48.010;11.326;2023-12-20T09:52:58;1.02;;;0.93;;
21297;SDS011;10808;48.010;11.326;2023-12-20T09:55:27;1.92;;;1.67;;
21297;SDS011;10808;48.010;11.326;2023-12-20T09:57:55;3.72;;;2.85;;
21297;SDS011;10808;48.010;11.326;2023-12-20T10:00:21;1.30;;;1.20;;
21297;SDS011;10808;48.010;11.326;2023-12-20T10:02:57;1.70;;;1.10;;
21297;SDS011;10808;48.010;11.326;2023-12-20T10:05:29;1.23;;;1.00;;
21297;SDS011;10808;48.010;11.326;2023-12-20T10:07:56;1.20;;;1.10;;
21297;SDS011;10808;48.010;11.326;2023-12-20T10:10:25;3.00;;;2.40;;
21297;SDS011;10808;48.010;11.326;2023-12-20T10:15:49;2.47;;;2.17;;
21297;SDS011;10808;48.010;11.326;2023-12-20T10:18:17;2.25;;;1.60;;
21297;SDS011;10808;48.010;11.326;2023-12-20T10:20:43;1.92;;;1.52;;
21297;SDS011;10808;48.010;11.326;2023-12-20T10:23:10;2.67;;;1.23;;
21297;SDS011;10808;48.010;11.326;2023-12-20T10:25:36;1.08;;;1.00;;
21297;SDS011;10808;48.010;11.326;2023-12-20T10:28:12;1.38;;;1.10;;
21297;SDS011;10808;48.010;11.326;2023-12-20T10:30:39;1.10;;;1.00;;
21297;SDS011;10808;48.010;11.326;2023-12-20T10:33:06;0.80;;;0.80;;
21297;SDS011;10808;48.010;11.326;2023-12-20T10:35:40;0.95;;;0.90;;
21297;SDS011;10808;48.010;11.326;2023-12-20T10:38:06;1.10;;;1.00;;
21297;SDS011;10808;48.010;11.326;2023-12-20T10:40:35;1.10;;;1.00;;
21297;SDS011;10808;48.010;11.326;2023-12-20T10:43:02;0.90;;;0.80;;
21297;SDS011;10808;48.010;11.326;2023-12-20T10:45:29;1.00;;;0.90;;
21297;SDS011;10808;48.010;11.326;2023-12-20T10:47:55;2.83;;;1.77;;
21297;SDS011;10808;48.010;11.326;2023-12-20T10:50:24;4.35;;;2.20;;
21297;SDS011;10808;48.010;11.326;2023-12-20T10:52:53;2.13;;;1.58;;
21297;SDS011;10808;48.010;11.326;2023-12-20T10:55:24;1.13;;;1.02;;
21297;SDS011;10808;48.010;11.326;2023-12-20T10:57:51;1.13;;;1.02;;
21297;SDS011;10808;48.010;11.326;2023-12-20T11:00:18;0.80;;;0.80;;
21297;SDS011;10808;48.010;11.326;2023-12-20T11:02:49;2.15;;;1.00;;
21297;SDS011;10808;48.010;11.326;2023-12-20T11:05:22;1.60;;;0.95;;
21297;SDS011;10808;48.010;11.326;2023-12-20T11:08:17;0.90;;;0.80;;
21297;SDS011;10808;48.010;11.326;2023-12-20T11:11:12;1.52;;;0.90;;
21297;SDS011;10808;48.010;11.326;2023-12-20T11:14:05;0.67;;;0.67;;
21297;SDS011;10808;48.010;11.326;2023-12-20T11:16:37;0.80;;;0.80;;
21297;SDS011;10808;48.010;11.326;2023-12-20T11:19:06;0.80;;;0.80;;
21297;SDS011;10808;48.010;11.326;2023-12-20T11:21:33;0.80;;;0.80;;
21297;SDS011;10808;48.010;11.326;2023-12-20T11:23:59;0.73;;;0.73;;
21297;SDS011;10808;48.010;11.326;2023-12-20T11:26:28;1.80;;;1.65;;
21297;SDS011;10808;48.010;11.326;2023-12-20T11:29:28;1.70;;;1.58;;
21297;SDS011;10808;48.010;11.326;2023-12-20T11:31:59;1.35;;;1.13;;
21297;SDS011;10808;48.010;11.326;2023-12-20T11:34:32;1.30;;;0.90;;
21297;SDS011;10808;48.010;11.326;2023-12-20T11:37:02;1.25;;;1.10;;
21297;SDS011;10808;48.010;11.326;2023-12-20T11:39:30;1.17;;;1.08;;
21297;SDS011;10808;48.010;11.326;2023-12-20T11:41:56;1.80;;;1.50;;
21297;SDS011;10808;48.010;11.326;2023-12-20T11:44:24;2.42;;;1.83;;
21297;SDS011;10808;48.010;11.326;2023-12-20T11:46:51;3.40;;;2.63;;
21297;SDS011;10808;48.010;11.326;2023-12-20T11:49:28;2.13;;;1.80;;
21297;SDS011;10808;48.010;11.326;2023-12-20T11:51:56;3.45;;;1.88;;
21297;SDS011;10808;48.010;11.326;2023-12-20T11:54:22;2.75;;;1.92;;
21297;SDS011;10808;48.010;11.326;2023-12-20T11:59:19;2.00;;;1.67;;
21297;SDS011;10808;48.010;11.326;2023-12-20T12:01:49;1.95;;;1.60;;
21297;SDS011;10808;48.010;11.326;2023-12-20T12:04:30;3.85;;;2.35;;
21297;SDS011;10808;48.010;11.326;2023-12-20T12:06:56;4.37;;;3.17;;
21297;SDS011;10808;48.010;11.326;2023-12-20T12:09:29;3.42;;;2.70;;
21297;SDS011;10808;48.010;11.326;2023-12-20T12:11:55;2.67;;;2.00;;
21297;SDS011;10808;48.010;11.326;2023-12-20T12:14:21;2.60;;;1.95;;
21297;SDS011;10808;48.010;11.326;2023-12-20T12:16:47;2.17;;;1.85;;
21297;SDS011;10808;48.010;11.326;2023-12-20T12:19:24;2.83;;;2.05;;
21297;SDS011;10808;48.010;11.326;2023-12-20T12:21:51;2.75;;;2.33;;
21297;SDS011;10808;48.010;11.326;2023-12-20T12:24:36;2.78;;;2.20;;
21297;SDS011;10808;48.010;11.326;2023-12-20T12:27:02;4.28;;;3.28;;
21297;SDS011;10808;48.010;11.326;2023-12-20T12:29:31;5.03;;;4.13;;
21297;SDS011;10808;48.010;11.326;2023-12-20T12:31:57;4.88;;;3.40;;
21297;SDS011;10808;48.010;11.326;2023-12-20T12:34:23;4.10;;;3.22;;
21297;SDS011;10808;48.010;11.326;2023-12-20T12:36:49;6.25;;;4.30;;
21297;SDS011;10808;48.010;11.326;2023-12-20T12:39:17;4.07;;;3.03;;
21297;SDS011;10808;48.010;11.326;2023-12-20T12:41:44;3.20;;;2.60;;
21297;SDS011;10808;48.010;11.326;2023-12-20T12:44:10;2.08;;;1.70;;
21297;SDS011;10808;48.010;11.326;2023-12-20T12:46:36;2.05;;;1.85;;
21297;SDS011;10808;48.010;11.326;2023-12-20T12:49:02;3.20;;;2.27;;
21297;SDS011;10808;48.010;11.326;2023-12-20T12:51:28;2.47;;;2.10;;
21297;SDS011;10808;48.010;11.326;2023-12-20T12:53:54;4.03;;;2.90;;
21297;SDS011;10808;48.010;11.326;2023-12-20T12:56:20;3.60;;;2.40;;
21297;SDS011;10808;48.010;11.326;2023-12-20T12:58:47;2.45;;;2.10;;
21297;SDS011;10808;48.010;11.326;2023-12-20T13:01:13;3.47;;;2.10;;
21297;SDS011;10808;48.010;11.326;2023-12-20T13:03:41;2.55;;;1.98;;
21297;SDS011;10808;48.010;11.326;2023-12-20T13:06:08;2.10;;;1.90;;
21297;SDS011;10808;48.010;11.326;2023-12-20T13:08:34;2.70;;;2.00;;
21297;SDS011;10808;48.010;11.326;2023-12-20T13:11:00;3.00;;;2.00;;
21297;SDS011;10808;48.010;11.326;2023-12-20T13:13:29;2.95;;;2.33;;
21297;SDS011;10808;48.010;11.326;2023-12-20T13:15:56;3.10;;;2.00;;
21297;SDS011;10808;48.010;11.326;2023-12-20T13:18:24;3.10;;;2.30;;
21297;SDS011;10808;48.010;11.326;2023-12-20T13:20:50;2.47;;;2.20;;
21297;SDS011;10808;48.010;11.326;2023-12-20T13:23:17;2.13;;;1.93;;
21297;SDS011;10808;48.010;11.326;2023-12-20T13:25:45;2.40;;;2.20;;
21297;SDS011;10808;48.010;11.326;2023-12-20T13:28:12;2.63;;;2.10;;
21297;SDS011;10808;48.010;11.326;2023-12-20T13:30:38;3.15;;;2.22;;
21297;SDS011;10808;48.010;11.326;2023-12-20T13:33:05;2.35;;;1.90;;
21297;SDS011;10808;48.010;11.326;2023-12-20T13:35:32;2.65;;;2.05;;
21297;SDS011;10808;48.010;11.326;2023-12-20T13:37:59;3.20;;;2.20;;
21297;SDS011;10808;48.010;11.326;2023-12-20T13:40:26;3.55;;;2.17;;
21297;SDS011;10808;48.010;11.326;2023-12-20T13:42:52;3.45;;;2.20;;
21297;SDS011;10808;48.010;11.326;2023-12-20T13:45:18;2.67;;;2.38;;
21297;SDS011;10808;48.010;11.326;2023-12-20T13:47:44;2.20;;;1.80;;
21297;SDS011;10808;48.010;11.326;2023-12-20T13:50:10;2.10;;;1.90;;
21297;SDS011;10808;48.010;11.326;2023-12-20T13:52:36;2.13;;;1.90;;
21297;SDS011;10808;48.010;11.326;2023-12-20T13:55:02;2.17;;;1.98;;
21297;SDS011;10808;48.010;11.326;2023-12-20T13:57:30;2.90;;;2.28;;
21297;SDS011;10808;48.010;11.326;2023-12-20T13:59:56;2.15;;;1.95;;
21297;SDS011;10808;48.010;11.326;2023-12-20T14:02:23;5.30;;;1.90;;
21297;SDS011;10808;48.010;11.326;2023-12-20T14:04:49;2.40;;;2.20;;
21297;SDS011;10808;48.010;11.326;2023-12-20T14:07:15;2.88;;;2.40;;
21297;SDS011;10808;48.010;11.326;2023-12-20T14:09:41;2.45;;;2.10;;
21297;SDS011;10808;48.010;11.326;2023-12-20T14:12:11;2.95;;;2.40;;
21297;SDS011;10808;48.010;11.326;2023-12-20T14:14:37;2.45;;;2.00;;
21297;SDS011;10808;48.010;11.326;2023-12-20T14:17:03;2.42;;;2.10;;
21297;SDS011;10808;48.010;11.326;2023-12-20T14:19:32;2.60;;;2.20;;
21297;SDS011;10808;48.010;11.326;2023-12-20T14:21:58;4.32;;;2.40;;
21297;SDS011;10808;48.010;11.326;2023-12-20T14:24:27;3.88;;;2.10;;
21297;SDS011;10808;48.010;11.326;2023-12-20T14:26:53;2.80;;;2.00;;
21297;SDS011;10808;48.010;11.326;2023-12-20T14:29:19;3.25;;;2.40;;
21297;SDS011;10808;48.010;11.326;2023-12-20T14:31:45;2.40;;;2.20;;
21297;SDS011;10808;48.010;11.326;2023-12-20T14:34:11;3.25;;;2.30;;
21297;SDS011;10808;48.010;11.326;2023-12-20T14:36:37;4.67;;;2.40;;
21297;SDS011;10808;48.010;11.326;2023-12-20T14:39:03;2.53;;;2.20;;
21297;SDS011;10808;48.010;11.326;2023-12-20T14:41:30;2.90;;;2.17;;